createdAt,value
2019-01-21T00:01:01.675Z,101049.70
2019-01-21T00:06:04.147Z,101053.06
2019-01-21T00:11:06.622Z,101058.98
2019-01-21T00:16:09.082Z,101056.94
2019-01-21T00:21:11.553Z,101059.02
2019-01-21T00:26:14.009Z,101072.98
2019-01-21T00:31:16.465Z,101068.23
2019-01-21T00:36:19.045Z,101064.48
2019-01-21T00:41:21.413Z,101070.35
2019-01-21T00:46:23.872Z,101066.70
2019-01-21T00:51:26.337Z,101064.83
2019-01-21T00:56:28.798Z,101074.63
2019-01-21T01:01:31.264Z,101075.98
2019-01-21T01:06:33.753Z,101079.30
2019-01-21T01:11:36.226Z,101078.95
2019-01-21T01:16:38.684Z,101085.67
2019-01-21T01:21:41.152Z,101087.70
2019-01-21T01:26:43.733Z,101085.94
2019-01-21T01:31:46.205Z,101091.31
2019-01-21T01:36:48.665Z,101104.33
2019-01-21T01:41:51.139Z,101097.84
2019-01-21T01:46:53.609Z,101102.39
2019-01-21T01:51:56.075Z,101104.20
2019-01-21T01:56:58.538Z,101095.72
2019-01-21T02:02:00.992Z,101100.03
2019-01-21T02:07:03.443Z,101096.78
2019-01-21T02:12:05.904Z,101106.44
2019-01-21T02:17:08.361Z,101106.54
2019-01-21T02:22:10.818Z,101101.23
2019-01-21T02:27:13.286Z,101107.42
2019-01-21T02:32:27.970Z,101106.58
2019-01-21T02:37:36.149Z,101107.02
2019-01-21T02:42:59.798Z,101102.19
2019-01-21T02:48:23.553Z,101099.78
2019-01-21T02:53:38.097Z,101102.48
2019-01-21T02:58:49.558Z,101093.09
2019-01-21T03:03:54.962Z,101096.08
2019-01-21T03:09:09.201Z,101087.91
2019-01-21T03:14:11.664Z,101094.36
2019-01-21T03:19:47.109Z,101094.50
2019-01-21T03:25:00.765Z,101085.34
2019-01-21T03:30:15.117Z,101079.21
2019-01-21T03:35:54.478Z,101080.49
2019-01-21T03:41:08.921Z,101086.83
2019-01-21T03:46:35.489Z,101097.84
2019-01-21T03:52:14.809Z,101091.86
2019-01-21T03:57:17.267Z,101096.16
2019-01-21T04:02:34.489Z,101099.25
2019-01-21T04:07:49.046Z,101093.61
2019-01-21T04:12:54.155Z,101088.92
2019-01-21T04:17:56.621Z,101086.64
2019-01-21T04:23:01.715Z,101089.87
2019-01-21T04:28:07.269Z,101092.43
2019-01-21T04:33:27.821Z,101093.48
2019-01-21T04:38:45.295Z,101104.06
2019-01-21T04:43:53.652Z,101098.83
2019-01-21T04:49:13.844Z,101108.85
2019-01-21T04:54:18.970Z,101103.47
2019-01-21T04:59:21.432Z,101103.20
2019-01-21T05:04:23.905Z,101112.47
2019-01-21T05:09:41.184Z,101115.70
2019-01-21T05:14:52.337Z,101115.78
2019-01-21T05:20:03.513Z,101118.94
2019-01-21T05:25:27.454Z,101120.33
2019-01-21T05:30:48.258Z,101118.64
2019-01-21T05:36:02.638Z,101119.27
2019-01-21T05:41:13.799Z,101124.47
2019-01-21T05:46:25.014Z,101127.39
2019-01-21T05:51:30.161Z,101125.81
2019-01-21T05:56:41.489Z,101135.83
2019-01-21T06:01:59.164Z,101143.09
2019-01-21T06:07:07.380Z,101147.00
2019-01-21T06:12:28.034Z,101139.03
2019-01-21T06:17:36.184Z,101146.16
2019-01-21T06:22:47.768Z,101149.77
2019-01-21T06:28:05.599Z,101160.73
2019-01-21T06:33:26.727Z,101162.97
2019-01-21T06:38:50.741Z,101166.44
2019-01-21T06:44:17.435Z,101173.61
2019-01-21T06:49:34.953Z,101169.42
2019-01-21T06:54:40.335Z,101184.48
2019-01-21T07:00:13.599Z,101187.25
2019-01-21T07:05:37.349Z,101192.84
2019-01-21T07:10:48.907Z,101191.49
2019-01-21T07:15:54.296Z,101191.66
2019-01-21T07:21:18.080Z,101202.91
2019-01-21T07:26:26.308Z,101211.86
2019-01-21T07:31:40.601Z,101202.13
2019-01-21T07:36:58.076Z,101205.48
2019-01-21T07:42:21.856Z,101205.14
2019-01-21T07:47:33.196Z,101205.55
2019-01-21T07:52:38.359Z,101211.55
2019-01-21T07:57:49.799Z,101204.22
2019-01-21T08:02:58.467Z,101195.55
2019-01-21T08:08:03.609Z,101205.84
2019-01-21T08:13:08.738Z,101201.75
2019-01-21T08:18:20.407Z,101204.42
2019-01-21T08:23:30.333Z,101205.03
2019-01-21T08:28:39.880Z,101210.98
2019-01-21T08:34:00.500Z,101214.77
2019-01-21T08:39:08.978Z,101215.53
2019-01-21T08:44:11.580Z,101223.92
2019-01-21T08:49:14.038Z,101229.48
2019-01-21T08:54:16.535Z,101234.01
2019-01-21T08:59:18.989Z,101225.39
2019-01-21T09:04:27.556Z,101233.70
2019-01-21T09:09:35.823Z,101239.63
2019-01-21T09:14:38.283Z,101236.19
2019-01-21T09:20:02.296Z,101239.45
2019-01-21T09:25:07.556Z,101238.62
2019-01-21T09:30:15.753Z,101249.97
2019-01-21T09:35:43.084Z,101250.44
2019-01-21T09:40:45.541Z,101252.14
2019-01-21T09:45:50.945Z,101253.94
2019-01-21T09:50:53.361Z,101253.75
2019-01-21T09:55:55.849Z,101256.39
2019-01-21T10:00:58.324Z,101255.28
2019-01-21T10:06:00.786Z,101259.70
2019-01-21T10:11:22.018Z,101249.05
2019-01-21T10:16:30.331Z,101254.41
2019-01-21T10:21:53.975Z,101253.71
2019-01-21T10:27:14.917Z,101248.25
2019-01-21T10:32:26.691Z,101246.33
2019-01-21T10:37:47.145Z,101239.14
2019-01-21T10:42:58.509Z,101237.17
2019-01-21T10:48:31.743Z,101239.96
2019-01-21T10:53:43.051Z,101224.51
2019-01-21T10:58:57.654Z,101214.87
2019-01-21T11:04:18.697Z,101213.10
2019-01-21T11:09:42.504Z,101213.35
2019-01-21T11:14:47.898Z,101211.14
2019-01-21T11:20:08.496Z,101202.06
2019-01-21T11:25:32.667Z,101207.38
2019-01-21T11:30:47.486Z,101197.73
2019-01-21T11:36:20.391Z,101192.42
2019-01-21T11:41:28.627Z,101195.97
2019-01-21T11:46:43.073Z,101182.66
2019-01-21T11:51:54.451Z,101177.72
2019-01-21T11:56:56.983Z,101164.58
2019-01-21T12:02:26.631Z,101160.26
2019-01-21T12:07:53.596Z,101162.03
2019-01-21T12:13:14.570Z,101159.77
2019-01-21T12:18:29.154Z,101157.90
2019-01-21T12:23:40.625Z,101146.63
2019-01-21T12:28:55.003Z,101148.56
2019-01-21T12:34:00.675Z,101143.47
2019-01-21T12:39:09.062Z,101135.95
2019-01-21T12:44:38.421Z,101132.90
2019-01-21T12:50:11.396Z,101122.56
2019-01-21T12:55:16.784Z,101123.34
2019-01-21T13:00:34.067Z,101125.28
2019-01-21T13:05:36.522Z,101113.89
2019-01-21T13:10:42.075Z,101112.42
2019-01-21T13:15:59.328Z,101108.24
2019-01-21T13:21:04.521Z,101102.20
2019-01-21T13:26:24.869Z,101094.39
2019-01-21T13:31:57.569Z,101086.88
2019-01-21T13:37:08.776Z,101085.41
2019-01-21T13:42:11.238Z,101081.66
2019-01-21T13:47:40.820Z,101080.95
2019-01-21T13:53:01.710Z,101076.88
2019-01-21T13:58:22.690Z,101073.06
2019-01-21T14:03:30.903Z,101076.58
2019-01-21T14:08:42.524Z,101074.72
2019-01-21T14:13:53.779Z,101062.45
2019-01-21T14:18:56.325Z,101066.85
2019-01-21T14:24:29.545Z,101056.91
2019-01-21T14:29:46.922Z,101056.10
2019-01-21T14:34:55.492Z,101050.16
2019-01-21T14:40:00.799Z,101047.28
2019-01-21T14:45:24.292Z,101052.91
2019-01-21T14:50:32.526Z,101044.58
2019-01-21T14:55:34.995Z,101033.48
2019-01-21T15:00:52.326Z,101025.56
2019-01-21T15:06:03.567Z,101028.59
2019-01-21T15:11:27.574Z,101024.98
2019-01-21T15:16:57.453Z,101029.78
2019-01-21T15:22:08.631Z,101033.70
2019-01-21T15:27:19.860Z,101032.56
2019-01-21T15:32:28.337Z,101035.03
2019-01-21T15:37:45.726Z,101035.71
2019-01-21T15:43:12.381Z,101044.55
2019-01-21T15:48:35.832Z,101037.98
2019-01-21T15:53:56.784Z,101039.46
2019-01-21T15:59:08.052Z,101046.52
2019-01-21T16:04:10.528Z,101045.00
2019-01-21T16:09:27.821Z,101042.91
2019-01-21T16:14:30.286Z,101040.58
2019-01-21T16:19:32.746Z,101055.37
2019-01-21T16:24:44.393Z,101050.33
2019-01-21T16:29:49.768Z,101060.09
2019-01-21T16:35:10.214Z,101063.20
2019-01-21T16:40:24.622Z,101057.06
2019-01-21T16:45:27.117Z,101049.83
2019-01-21T16:50:29.582Z,101048.13
2019-01-21T16:55:32.050Z,101052.07
2019-01-21T17:00:34.516Z,101049.31
2019-01-21T17:05:36.968Z,101055.00
2019-01-21T17:10:39.556Z,101051.17
2019-01-21T17:15:41.900Z,101049.19
2019-01-21T17:20:44.379Z,101056.37
2019-01-21T17:25:46.834Z,101062.80
2019-01-21T17:30:49.304Z,101057.73
2019-01-21T17:35:51.764Z,101060.95
2019-01-21T17:40:54.292Z,101064.09
2019-01-21T17:45:56.733Z,101054.72
2019-01-21T17:50:59.220Z,101049.41
2019-01-21T17:56:01.707Z,101045.30
2019-01-21T18:01:04.160Z,101039.17
2019-01-21T18:06:06.664Z,101039.50
2019-01-21T18:11:09.156Z,101040.05
2019-01-21T18:16:11.643Z,101046.44
2019-01-21T18:21:14.145Z,101044.98
2019-01-21T18:26:16.626Z,101047.92
2019-01-21T18:31:19.116Z,101040.37
2019-01-21T18:36:21.590Z,101045.15
2019-01-21T18:41:24.122Z,101042.27
2019-01-21T18:46:26.675Z,101033.45
2019-01-21T18:51:29.099Z,101031.48
2019-01-21T18:56:31.589Z,101028.78
2019-01-21T19:01:34.064Z,101025.86
2019-01-21T19:06:36.518Z,101023.86
2019-01-21T19:11:38.997Z,101025.72
2019-01-21T19:16:41.520Z,101031.93
2019-01-21T19:21:43.956Z,101036.37
2019-01-21T19:26:46.441Z,101031.81
2019-01-21T19:31:48.915Z,101027.66
2019-01-21T19:36:51.391Z,101026.72
2019-01-21T19:41:53.881Z,101033.16
2019-01-21T19:46:56.357Z,101039.62
2019-01-21T19:52:00.397Z,101038.55
2019-01-21T19:57:01.364Z,101039.08
2019-01-21T20:02:03.840Z,101029.44
2019-01-21T20:07:06.325Z,101019.64
2019-01-21T20:12:08.811Z,101030.48
2019-01-21T20:17:11.281Z,101029.56
2019-01-21T20:22:13.758Z,101036.13
2019-01-21T20:27:16.268Z,101035.16
2019-01-21T20:32:18.738Z,101032.62
2019-01-21T20:37:21.205Z,101027.14
2019-01-21T20:42:23.697Z,101036.52
2019-01-21T20:47:26.140Z,101035.30
2019-01-21T20:52:28.613Z,101036.36
2019-01-21T20:57:31.089Z,101036.50
2019-01-21T21:02:33.578Z,101035.80
2019-01-21T21:07:36.175Z,101029.52
2019-01-21T21:12:39.726Z,101022.10
2019-01-21T21:17:42.210Z,101007.67
2019-01-21T21:22:44.677Z,101007.55
2019-01-21T21:27:47.283Z,101007.44
2019-01-21T21:32:49.751Z,100986.93
2019-01-21T21:37:52.215Z,100984.38
2019-01-21T21:42:54.707Z,100978.50
2019-01-21T21:48:00.920Z,100981.45
2019-01-21T21:52:59.634Z,100984.80
2019-01-21T21:58:02.103Z,100979.69
2019-01-21T22:03:04.569Z,100975.13
2019-01-21T22:08:07.055Z,100964.00
2019-01-21T22:13:09.539Z,100961.87
2019-01-21T22:18:12.024Z,100955.41
2019-01-21T22:23:14.485Z,100959.98
2019-01-21T22:28:16.965Z,100952.22
2019-01-21T22:33:19.491Z,100950.72
2019-01-21T22:38:21.963Z,100946.17
2019-01-21T22:43:24.477Z,100940.00
2019-01-21T22:48:26.907Z,100931.41
2019-01-21T22:53:29.372Z,100938.95
2019-01-21T22:58:31.848Z,100938.55
2019-01-21T23:03:34.317Z,100938.70
2019-01-21T23:08:36.775Z,100934.02
2019-01-21T23:13:39.237Z,100941.66
2019-01-21T23:18:41.701Z,100944.08
2019-01-21T23:23:44.164Z,100934.56
2019-01-21T23:28:46.624Z,100930.42
2019-01-21T23:33:49.093Z,100915.41
2019-01-21T23:38:51.555Z,100910.03
2019-01-21T23:43:54.009Z,100904.92
2019-01-21T23:48:56.476Z,100900.67
2019-01-21T23:53:59.013Z,100901.35
2019-01-21T23:59:01.495Z,100899.06
